Record high temperature 33.3°C Record low temperature -24.9°C Record high gust 32.4 kts Record high average 15.7 kts Record daily rain 0.0 mm Record low windchill -28.7°C Record high barometer 1042.1 hPa Record low barometer 947.2 hPa
Daily high pressure 995.5 hPa Daily low pressure 992.0 hPa Daily low windchill -7.2°C Daily high heat index 11.6°C Daily high gust speed 15.1 kts W Daily high average speed 8.0 kts WSW
ESUI Väder
LAST READING AT TIME: 7:10 PM DATE: May 08 2021, time of next update: 7:15 pm
Current WeatherDry Current Temperature 11.2°C (52.2°F), Apparent temp 9.1°C
Maximum Temperature (since midnight)11.6°C at: 4:05 PM Minimum Temperature (since midnight)-7.2°C at: 4:24 AM
Average windspeed (ten minute)3.0 kts (5.6 kmh) Wind Direction (ten minute)WNW (289°)
Windchill Temperature 11.2°C Maximum Gust (last hour)5.9 kts (11.0 kmh) at: 6:10 PM
Maximum Gust (since midnight)15.1 kts (27.9 kmh) at: 5:32 PM Maximum 1 minute average (since midnight)8.0 kts (14.8 kmh) at: 12:00 PM
Rainfall (last hour)0.0 mm Rainfall (since midnight)0.0 mm (0.00 in.)---
Rainfall This month 0.0 mm (0.00 in.) Rainfall To date this year 0.0 mm (0.00 in.)
Maximum rain per minute (last hour)0.0 mm/min Maximum rain per hour (last 6 hours)0.0 mm/hour
Yesterdays rainfall 0.0 mm DewPoint -0.0°C (Wet Bulb :6.6°C )
Humidity 46 %, Humidex 9.0°C Barometer corrected to msl995.4 hPa
Pressure change 0.1 hPa (last hour) Trend (last hour)STEADY
Pressure change (last 12 hours)+1.0 hPa Pressure change (last 6 hours)+1.3 hPa
Current Indoor Temp. 16.7°C
Current Indoor Hum. 29%



Weather report/warning/Metars

Ornskoldsvik Airport, Sweden (ESNO) 63-24N 018-58E
May 08, 2021 - 12:50 PM EDT / 2021.05.08 1650 UTC
Wind: from the W (270 degrees) at 12 MPH (10 KT):0
Visibility: greater than 7 mile(s):0
Sky conditions: partly cloudy
Temperature: 48 F (9 C)
Dew Point: 17 F (-8 C)
Relative Humidity: 29%
Pressure (altimeter): 29.71 in. Hg (1006 hPa)
ob: ESNO 081650Z AUTO 27010KT 9999 FEW070/// SCT096/// 09/M08 Q1006
cycle: 17
Kramfors Flygplats, Sweden (ESNK) 63-03N 017-46E 19M
May 08, 2021 - 12:50 PM EDT / 2021.05.08 1650 UTC
Wind: from the NNW (330 degrees) at 8 MPH (7 KT) (direction variable):0
Visibility: greater than 7 mile(s):0
Sky conditions: mostly clear
Temperature: 50 F (10 C)
Dew Point: 15 F (-9 C)
Relative Humidity: 25%
Pressure (altimeter): 29.74 in. Hg (1007 hPa)
ob: ESNK 081650Z AUTO 33007KT 290V010 9999 FEW078/// 10/M09 Q1007
cycle: 17
Umea Flygplats, Sweden (ESNU) 63-48N 020-17E 14M
May 08, 2021 - 12:50 PM EDT / 2021.05.08 1650 UTC
Wind: from the S (190 degrees) at 8 MPH (7 KT):0
Visibility: greater than 7 mile(s):0
Temperature: 44 F (7 C)
Dew Point: 30 F (-1 C)
Relative Humidity: 56%
Pressure (altimeter): 29.71 in. Hg (1006 hPa)
ob: ESNU 081650Z 19007KT CAVOK 07/M01 Q1006
cycle: 17
Skelleftea Airport, Sweden (ESNS) 64-38N 021-05E
May 08, 2021 - 12:50 PM EDT / 2021.05.08 1650 UTC
Wind: from the W (280 degrees) at 12 MPH (10 KT):0
Visibility: greater than 7 mile(s):0
Sky conditions: mostly clear
Temperature: 48 F (9 C)
Dew Point: 19 F (-7 C)
Relative Humidity: 31%
Pressure (altimeter): 29.68 in. Hg (1005 hPa)
ob: ESNS 081650Z AUTO 28010KT 9999 FEW068/// 09/M07 Q1005
cycle: 17



The data is logged at two minute intervals, but there is data recorded every minute.

Use the RELOAD facility on your browser to retrieve the latest data.

Click here for a daily update of the averages/extremes to date for the month
Created by "Weather Display" software version 10.37S at this start time/date 18:01:28 2021-05-08